Time;durP1;ratioP1;P1;durP2;ratioP2;P2;SDS_P1;SDS_P2;PMS_P1;PMS_P2;Temp;Humidity;BMP_temperature;BMP_pressure;BME280_temperature;BME280_humidity;BME280_pressure;Samples;Min_cycle;Max_cycle;Signal;HPM_P1;HPM_P2
2022/07/10 00:00:06;;;;;;;0.10;0.10;;;13.20;99.90;;;;;;5031598;28;21084;-83
2022/07/10 00:02:32;;;;;;;0.10;0.10;;;13.10;99.90;;;;;;5021921;28;20502;-84
2022/07/10 00:04:57;;;;;;;0.10;0.10;;;13.20;99.90;;;;;;5022998;28;20941;-84
2022/07/10 00:07:23;;;;;;;0.10;0.10;;;13.20;99.90;;;;;;5030793;28;20191;-83
2022/07/10 00:09:48;;;;;;;0.10;0.10;;;13.10;99.90;;;;;;5025187;28;20184;-84
2022/07/10 00:12:14;;;;;;;0.10;0.10;;;13.00;99.90;;;;;;5022508;28;20714;-83
2022/07/10 00:14:39;;;;;;;0.20;0.20;;;13.00;99.90;;;;;;5023174;28;20183;-83
2022/07/10 00:17:05;;;;;;;0.10;0.10;;;13.00;99.90;;;;;;5028690;28;20675;-84
2022/07/10 00:19:30;;;;;;;0.10;0.10;;;13.00;99.90;;;;;;5032280;28;20187;-85
2022/07/10 00:21:56;;;;;;;0.10;0.10;;;13.10;99.90;;;;;;5026981;28;20223;-83
2022/07/10 00:24:21;;;;;;;0.20;0.20;;;13.00;99.90;;;;;;5017521;28;20412;-84
2022/07/10 00:26:47;;;;;;;0.10;0.10;;;12.90;99.90;;;;;;5022511;28;20188;-83
2022/07/10 00:29:13;;;;;;;0.10;0.10;;;12.90;99.90;;;;;;5027744;28;20196;-84
2022/07/10 00:31:39;;;;;;;0.10;0.10;;;12.90;99.90;;;;;;5028064;28;20188;-83
2022/07/10 00:34:06;;;;;;;0.10;0.10;;;13.00;99.90;;;;;;5027884;28;20524;-85
2022/07/10 00:36:31;;;;;;;0.10;0.10;;;12.90;99.90;;;;;;5028724;28;20245;-86
2022/07/10 00:38:57;;;;;;;0.10;0.10;;;12.90;99.90;;;;;;5027607;28;20446;-83
2022/07/10 00:41:22;;;;;;;0.20;0.20;;;13.00;99.90;;;;;;5023261;28;20257;-85
2022/07/10 00:43:53;;;;;;;0.10;0.10;;;12.90;99.90;;;;;;5019931;28;20188;-83
2022/07/10 00:46:22;;;;;;;0.10;0.10;;;13.00;99.90;;;;;;5026375;28;20190;-83
2022/07/10 00:48:48;;;;;;;0.10;0.10;;;13.00;99.90;;;;;;5017907;28;20456;-83
2022/07/10 00:51:16;;;;;;;0.10;0.10;;;13.00;99.90;;;;;;5031121;28;20615;-84
2022/07/10 00:53:43;;;;;;;0.10;0.10;;;12.90;99.90;;;;;;5030150;28;20449;-84
2022/07/10 00:56:10;;;;;;;0.10;0.10;;;13.00;99.90;;;;;;5020792;28;20483;-83
2022/07/10 00:58:35;;;;;;;0.10;0.10;;;13.00;99.90;;;;;;5023439;28;20453;-83
2022/07/10 01:01:02;;;;;;;0.10;0.10;;;13.00;99.90;;;;;;5019410;28;20549;-82
2022/07/10 01:03:27;;;;;;;0.10;0.10;;;13.00;99.90;;;;;;5023066;28;20235;-83
2022/07/10 01:05:53;;;;;;;0.10;0.10;;;13.00;99.90;;;;;;5024861;28;20451;-83
2022/07/10 01:08:19;;;;;;;0.10;0.10;;;13.00;99.90;;;;;;5018454;28;20191;-83
2022/07/10 01:10:45;;;;;;;0.10;0.10;;;13.00;99.90;;;;;;5026272;28;20286;-83
2022/07/10 01:13:10;;;;;;;0.20;0.20;;;13.00;99.90;;;;;;5020317;28;20203;-83
2022/07/10 01:15:37;;;;;;;0.10;0.10;;;13.00;99.90;;;;;;5020202;28;20454;-83
2022/07/10 01:18:03;;;;;;;0.20;0.20;;;13.10;99.90;;;;;;5025957;28;20195;-83
2022/07/10 01:20:32;;;;;;;0.10;0.10;;;13.10;99.90;;;;;;5019708;28;20450;-83
2022/07/10 01:22:59;;;;;;;0.10;0.10;;;13.20;99.90;;;;;;5011376;28;20529;-84
2022/07/10 01:25:24;;;;;;;0.10;0.10;;;13.20;99.90;;;;;;5024978;28;20542;-83
2022/07/10 01:27:50;;;;;;;0.17;0.17;;;13.20;99.90;;;;;;5016801;28;20528;-83
2022/07/10 01:30:17;;;;;;;0.10;0.10;;;13.20;99.90;;;;;;5018278;28;20203;-82
2022/07/10 01:32:43;;;;;;;0.10;0.10;;;13.20;99.90;;;;;;5023250;28;20446;-83
2022/07/10 01:35:09;;;;;;;0.10;0.10;;;13.30;99.90;;;;;;5016375;28;20827;-82
2022/07/10 01:37:34;;;;;;;0.10;0.10;;;13.30;99.90;;;;;;5022070;28;20222;-83
2022/07/10 01:40:00;;;;;;;0.10;0.10;;;13.20;99.90;;;;;;5027998;28;20963;-82
2022/07/10 01:42:25;;;;;;;0.10;0.10;;;13.30;99.90;;;;;;5020335;28;20227;-83
2022/07/10 01:44:51;;;;;;;0.10;0.10;;;13.30;99.90;;;;;;5017324;28;20191;-83
2022/07/10 01:47:16;;;;;;;0.10;0.10;;;13.20;99.90;;;;;;5017592;28;20208;-83
2022/07/10 01:49:42;;;;;;;0.10;0.10;;;13.30;99.90;;;;;;5012583;28;20237;-83
2022/07/10 01:52:07;;;;;;;0.10;0.10;;;13.30;99.90;;;;;;5022872;28;20199;-83
2022/07/10 01:54:33;;;;;;;0.10;0.10;;;13.30;99.90;;;;;;5016562;28;20259;-83
2022/07/10 01:56:58;;;;;;;0.10;0.10;;;13.20;99.90;;;;;;5021460;28;20207;-82
2022/07/10 01:59:24;;;;;;;0.10;0.10;;;13.10;99.90;;;;;;5023998;28;20183;-82
2022/07/10 02:01:49;;;;;;;0.10;0.10;;;13.10;99.90;;;;;;5024588;28;20242;-82
2022/07/10 02:06:59;;;;;;;0.10;0.10;;;13.20;99.90;;;;;;5025218;28;20201;-82
2022/07/10 02:09:24;;;;;;;0.10;0.10;;;13.10;99.90;;;;;;5023777;28;20450;-83
2022/07/10 02:11:50;;;;;;;0.10;0.10;;;13.10;99.90;;;;;;5026248;28;20234;-82
2022/07/10 02:14:15;;;;;;;0.10;0.10;;;13.20;99.90;;;;;;5025566;28;20673;-82
2022/07/10 02:16:41;;;;;;;0.10;0.10;;;13.00;99.90;;;;;;5023035;28;20274;-81
2022/07/10 02:19:06;;;;;;;0.10;0.10;;;13.10;99.90;;;;;;5022136;28;21170;-83
2022/07/10 02:21:32;;;;;;;0.10;0.10;;;13.10;99.90;;;;;;5026205;28;20306;-82
2022/07/10 02:23:57;;;;;;;0.10;0.10;;;13.10;99.90;;;;;;5025458;28;20295;-82
2022/07/10 02:26:23;;;;;;;0.10;0.10;;;13.10;99.90;;;;;;5025205;28;20640;-83
2022/07/10 02:28:48;;;;;;;0.10;0.10;;;13.10;99.90;;;;;;5026397;28;20202;-83
2022/07/10 02:31:14;;;;;;;0.10;0.10;;;13.10;99.90;;;;;;5014694;28;20235;-82
2022/07/10 02:33:39;;;;;;;0.10;0.10;;;13.10;99.90;;;;;;5020309;28;20220;-81
2022/07/10 02:36:05;;;;;;;0.10;0.10;;;13.00;99.90;;;;;;5024430;28;20219;-82
2022/07/10 02:38:30;;;;;;;0.10;0.10;;;13.00;99.90;;;;;;5024328;28;20628;-82
2022/07/10 02:40:56;;;;;;;0.10;0.10;;;13.00;99.90;;;;;;5018361;28;20188;-82
2022/07/10 02:43:21;;;;;;;0.20;0.20;;;13.00;99.90;;;;;;5023556;28;20301;-84
2022/07/10 02:45:47;;;;;;;0.10;0.10;;;12.90;99.90;;;;;;5015497;28;20630;-80
2022/07/10 02:48:15;;;;;;;0.10;0.10;;;13.00;99.90;;;;;;5019973;28;20192;-82
2022/07/10 02:50:41;;;;;;;0.10;0.10;;;13.10;99.90;;;;;;5023475;28;20186;-83
2022/07/10 02:53:06;;;;;;;0.10;0.10;;;13.00;99.90;;;;;;5024894;28;20470;-83
2022/07/10 02:55:32;;;;;;;0.10;0.10;;;13.00;99.90;;;;;;5023659;28;20195;-85
2022/07/10 02:57:59;;;;;;;0.10;0.10;;;12.90;99.90;;;;;;5015869;28;20637;-81
2022/07/10 03:00:26;;;;;;;0.10;0.10;;;13.00;99.90;;;;;;5017979;28;20475;-82
2022/07/10 03:02:52;;;;;;;0.10;0.10;;;12.90;99.90;;;;;;5027162;28;20485;-82
2022/07/10 03:05:17;;;;;;;0.10;0.10;;;12.90;99.90;;;;;;5023448;28;20450;-82
2022/07/10 03:07:43;;;;;;;0.20;0.20;;;12.90;99.90;;;;;;5032064;28;20454;-83
2022/07/10 03:10:09;;;;;;;0.10;0.10;;;12.80;99.90;;;;;;5030532;28;20252;-82
2022/07/10 03:12:35;;;;;;;0.20;0.20;;;12.70;99.90;;;;;;5028506;28;20197;-82
2022/07/10 03:15:00;;;;;;;0.20;0.20;;;12.70;99.90;;;;;;5019734;28;20889;-82
2022/07/10 03:17:26;;;;;;;0.10;0.10;;;12.70;99.90;;;;;;5029475;28;20825;-82
2022/07/10 03:19:51;;;;;;;0.20;0.20;;;12.80;99.90;;;;;;5021058;28;20215;-83
2022/07/10 03:22:17;;;;;;;0.10;0.10;;;12.80;99.90;;;;;;5031014;28;20226;-83
2022/07/10 03:24:46;;;;;;;0.20;0.20;;;12.90;99.90;;;;;;5025001;28;20188;-83
2022/07/10 03:27:13;;;;;;;0.10;0.10;;;12.80;99.90;;;;;;5024347;28;20186;-83
2022/07/10 03:29:38;;;;;;;0.10;0.10;;;12.80;99.90;;;;;;5024032;28;20430;-83
2022/07/10 03:32:05;;;;;;;0.10;0.10;;;12.70;99.90;;;;;;5026133;28;20458;-84
2022/07/10 03:34:30;;;;;;;0.10;0.10;;;12.80;99.90;;;;;;5013963;28;20183;-82
2022/07/10 03:36:56;;;;;;;0.20;0.20;;;12.90;99.90;;;;;;5030506;28;20464;-83
2022/07/10 03:39:22;;;;;;;0.10;0.10;;;13.00;99.90;;;;;;5030920;28;20219;-83
2022/07/10 03:41:47;;;;;;;0.20;0.20;;;12.90;99.90;;;;;;5021922;28;20562;-82
2022/07/10 03:44:13;;;;;;;0.20;0.20;;;12.90;99.90;;;;;;5013556;28;20454;-82
2022/07/10 03:46:38;;;;;;;0.10;0.10;;;12.90;99.90;;;;;;5021879;28;20188;-82
2022/07/10 03:49:04;;;;;;;0.10;0.10;;;12.90;99.90;;;;;;5028781;28;20261;-82
2022/07/10 03:51:29;;;;;;;0.10;0.10;;;12.90;99.90;;;;;;5028858;28;20234;-82
2022/07/10 03:53:54;;;;;;;0.10;0.10;;;12.80;99.90;;;;;;5029223;28;20609;-82
2022/07/10 03:59:04;;;;;;;0.20;0.20;;;12.80;99.90;;;;;;5023711;28;20258;-83
2022/07/10 04:01:30;;;;;;;0.20;0.20;;;12.80;99.90;;;;;;5016896;28;20466;-84
2022/07/10 04:03:56;;;;;;;0.10;0.10;;;12.70;99.90;;;;;;5015517;28;20189;-82
2022/07/10 04:06:21;;;;;;;0.10;0.10;;;12.70;99.90;;;;;;5045262;28;20461;-83
2022/07/10 04:08:47;;;;;;;0.20;0.20;;;12.60;99.90;;;;;;5029413;28;20222;-83
2022/07/10 04:11:12;;;;;;;0.10;0.10;;;12.60;99.90;;;;;;5023555;28;20702;-83
2022/07/10 04:13:37;;;;;;;0.20;0.20;;;12.50;99.90;;;;;;5013708;28;20267;-82
2022/07/10 04:16:03;;;;;;;0.10;0.10;;;12.50;99.90;;;;;;5018381;28;20188;-81
2022/07/10 04:18:29;;;;;;;0.10;0.10;;;12.50;99.90;;;;;;5017416;28;20192;-83
2022/07/10 04:20:54;;;;;;;0.20;0.20;;;12.50;99.90;;;;;;5030348;28;20449;-83
2022/07/10 04:23:20;;;;;;;0.10;0.10;;;12.50;99.90;;;;;;5034615;28;20277;-84
2022/07/10 04:25:45;;;;;;;0.10;0.10;;;12.60;99.90;;;;;;5014576;28;20781;-82
2022/07/10 04:28:11;;;;;;;0.10;0.10;;;12.60;99.90;;;;;;5030494;28;20192;-83
2022/07/10 04:30:36;;;;;;;0.10;0.10;;;12.70;99.90;;;;;;5038635;28;20908;-82
2022/07/10 04:33:02;;;;;;;0.10;0.10;;;12.80;99.90;;;;;;5028451;28;20192;-83
2022/07/10 04:35:27;;;;;;;0.10;0.10;;;12.80;99.90;;;;;;5027702;28;20189;-82
2022/07/10 04:37:53;;;;;;;0.10;0.10;;;12.90;99.90;;;;;;5017572;28;20275;-82
2022/07/10 04:40:18;;;;;;;0.20;0.20;;;12.80;99.90;;;;;;5020795;28;20191;-83
2022/07/10 04:42:44;;;;;;;0.10;0.10;;;12.90;99.90;;;;;;5032420;28;20602;-83
2022/07/10 04:45:11;;;;;;;0.10;0.10;;;13.00;99.90;;;;;;5037289;28;20191;-81
2022/07/10 04:47:36;;;;;;;0.10;0.10;;;13.00;99.90;;;;;;5028866;28;20485;-82
2022/07/10 04:50:02;;;;;;;0.10;0.10;;;13.00;99.90;;;;;;5026585;28;20460;-82
2022/07/10 04:52:27;;;;;;;0.10;0.10;;;13.00;99.90;;;;;;5025957;28;20612;-83
2022/07/10 04:54:53;;;;;;;0.10;0.10;;;12.90;99.90;;;;;;5029695;28;20176;-83
2022/07/10 04:57:18;;;;;;;0.20;0.20;;;12.90;99.90;;;;;;5035982;28;20248;-82
2022/07/10 04:59:44;;;;;;;0.10;0.10;;;13.00;99.90;;;;;;5024797;28;20188;-83
2022/07/10 05:02:09;;;;;;;0.10;0.10;;;13.00;99.90;;;;;;5025797;28;20777;-83
2022/07/10 05:04:35;;;;;;;0.13;0.13;;;13.10;99.90;;;;;;5028381;28;20180;-82
2022/07/10 05:07:00;;;;;;;0.10;0.10;;;13.10;99.90;;;;;;5026157;28;20206;-83
2022/07/10 05:09:26;;;;;;;0.10;0.10;;;13.10;99.90;;;;;;5024593;28;20191;-84
2022/07/10 05:11:51;;;;;;;0.10;0.10;;;13.10;99.90;;;;;;5041265;28;20200;-83
2022/07/10 05:14:17;;;;;;;0.10;0.10;;;13.10;99.90;;;;;;5046831;28;20183;-83
2022/07/10 05:16:42;;;;;;;0.10;0.10;;;13.20;99.90;;;;;;5031651;28;20688;-84
2022/07/10 05:19:08;;;;;;;0.10;0.10;;;13.20;99.90;;;;;;5032773;28;20563;-84
2022/07/10 05:21:33;;;;;;;0.10;0.10;;;13.30;99.90;;;;;;5037140;28;20676;-83
2022/07/10 05:23:59;;;;;;;0.10;0.10;;;13.20;99.90;;;;;;5032515;28;20184;-83
2022/07/10 05:26:24;;;;;;;0.10;0.10;;;13.30;99.90;;;;;;5031570;28;20205;-83
2022/07/10 05:28:50;;;;;;;0.10;0.10;;;13.30;99.90;;;;;;5039435;28;20483;-84
2022/07/10 05:31:15;;;;;;;0.10;0.10;;;13.20;99.90;;;;;;5051706;28;20195;-83
2022/07/10 05:33:42;;;;;;;0.10;0.10;;;13.30;99.90;;;;;;5046231;28;20193;-85
2022/07/10 05:36:08;;;;;;;0.10;0.10;;;13.40;99.90;;;;;;5034905;28;20230;-83
2022/07/10 05:38:34;;;;;;;0.10;0.10;;;13.50;99.90;;;;;;5027950;28;20452;-83
2022/07/10 05:40:59;;;;;;;0.10;0.10;;;13.50;99.90;;;;;;5023781;28;20528;-82
2022/07/10 05:43:25;;;;;;;0.10;0.10;;;13.50;99.90;;;;;;5038397;28;20262;-83
2022/07/10 05:45:51;;;;;;;0.10;0.10;;;13.50;99.90;;;;;;5035114;28;20262;-83
2022/07/10 05:48:16;;;;;;;0.10;0.10;;;13.60;99.90;;;;;;5028298;28;20231;-83
2022/07/10 05:50:42;;;;;;;0.10;0.10;;;13.60;99.90;;;;;;5029924;28;20246;-84
2022/07/10 05:53:07;;;;;;;0.10;0.10;;;13.70;99.90;;;;;;5029466;28;20192;-82
2022/07/10 05:55:32;;;;;;;0.10;0.10;;;13.90;99.90;;;;;;5027997;28;22386;-82
2022/07/10 05:57:59;;;;;;;0.10;0.10;;;13.90;99.90;;;;;;5025946;28;20214;-83
2022/07/10 06:00:24;;;;;;;0.20;0.20;;;14.00;99.90;;;;;;5026314;28;20305;-84
2022/07/10 06:02:50;;;;;;;0.10;0.10;;;13.90;99.90;;;;;;5029502;28;20573;-85
2022/07/10 06:05:15;;;;;;;0.10;0.10;;;14.10;99.90;;;;;;5039754;28;20446;-83
2022/07/10 06:07:41;;;;;;;0.10;0.10;;;14.10;99.90;;;;;;5029770;28;20604;-83
2022/07/10 06:10:07;;;;;;;0.10;0.10;;;14.10;99.90;;;;;;5038182;28;20585;-83
2022/07/10 06:12:33;;;;;;;0.20;0.20;;;14.10;99.90;;;;;;5023220;28;20184;-83
2022/07/10 06:14:58;;;;;;;0.10;0.10;;;14.30;99.90;;;;;;5033277;28;20525;-83
2022/07/10 06:17:24;;;;;;;0.10;0.10;;;14.30;99.90;;;;;;5024552;28;20201;-82
2022/07/10 06:19:50;;;;;;;0.10;0.10;;;14.30;99.90;;;;;;5031499;28;20183;-83
2022/07/10 06:22:31;;;;;;;0.10;0.10;;;14.40;99.90;;;;;;5046161;28;21034;-83
2022/07/10 06:24:58;;;;;;;0.10;0.10;;;14.60;99.90;;;;;;5039206;28;20183;-83
2022/07/10 06:27:23;;;;;;;0.10;0.10;;;14.60;99.90;;;;;;5032343;28;20509;-83
2022/07/10 06:29:49;;;;;;;0.10;0.10;;;14.90;99.90;;;;;;5040450;28;21003;-83
2022/07/10 06:32:15;;;;;;;0.10;0.10;;;14.80;99.90;;;;;;5036289;28;20199;-84
2022/07/10 06:34:40;;;;;;;0.10;0.10;;;14.90;99.90;;;;;;5032562;28;20270;-83
2022/07/10 06:37:06;;;;;;;0.10;0.10;;;14.80;99.90;;;;;;5025530;28;20204;-82
2022/07/10 06:39:36;;;;;;;0.10;0.10;;;14.90;99.90;;;;;;5044570;28;20256;-84
2022/07/10 06:42:05;;;;;;;0.10;0.10;;;14.90;99.90;;;;;;5043413;28;20242;-82
2022/07/10 06:44:31;;;;;;;0.10;0.10;;;15.00;99.90;;;;;;5022583;28;20946;-83
2022/07/10 06:49:43;;;;;;;0.10;0.10;;;14.70;99.90;;;;;;5026778;28;20193;-83
2022/07/10 06:52:09;;;;;;;0.10;0.10;;;14.90;99.90;;;;;;5043744;28;20563;-83
2022/07/10 06:54:35;;;;;;;0.10;0.10;;;14.90;99.90;;;;;;5032094;28;20508;-82
2022/07/10 06:57:01;;;;;;;0.10;0.10;;;15.10;99.90;;;;;;5044672;28;20686;-86
2022/07/10 06:59:27;;;;;;;0.10;0.10;;;15.20;99.90;;;;;;5026934;28;20253;-85
2022/07/10 07:01:52;;;;;;;0.10;0.10;;;15.30;99.90;;;;;;5039240;28;21136;-85
2022/07/10 07:04:18;;;;;;;0.10;0.10;;;15.30;99.90;;;;;;5038350;28;20229;-84
2022/07/10 07:06:43;;;;;;;0.10;0.10;;;15.40;99.90;;;;;;5038028;28;20596;-83
2022/07/10 07:09:09;;;;;;;0.10;0.10;;;15.20;99.90;;;;;;5033386;28;20195;-84
2022/07/10 07:11:34;;;;;;;0.10;0.10;;;15.30;99.90;;;;;;5037121;28;20647;-84
2022/07/10 07:14:00;;;;;;;0.10;0.10;;;15.30;99.90;;;;;;5027452;28;20186;-84
2022/07/10 07:16:38;;;;;;;0.10;0.10;;;15.20;99.90;;;;;;5027524;28;20183;-83
2022/07/10 07:19:05;;;;;;;0.10;0.10;;;15.30;99.90;;;;;;5035809;28;20564;-83
2022/07/10 07:24:18;;;;;;;0.10;0.10;;;15.70;99.90;;;;;;5044235;28;20440;-82
2022/07/10 07:26:49;;;;;;;0.10;0.10;;;15.90;99.90;;;;;;5048444;28;20520;-82
2022/07/10 07:29:16;;;;;;;0.10;0.10;;;16.30;99.90;;;;;;5029827;28;20449;-83
2022/07/10 07:31:42;;;;;;;0.10;0.10;;;16.50;99.90;;;;;;5042008;28;20542;-83
2022/07/10 07:34:08;;;;;;;0.10;0.10;;;16.40;99.90;;;;;;5039958;28;20620;-83
2022/07/10 07:36:33;;;;;;;0.10;0.10;;;16.10;99.90;;;;;;5021384;28;20195;-83
2022/07/10 07:38:59;;;;;;;0.10;0.10;;;16.40;99.90;;;;;;5039686;28;20461;-83
2022/07/10 07:41:25;;;;;;;0.10;0.10;;;16.80;99.90;;;;;;5032518;28;20527;-83
2022/07/10 07:43:50;;;;;;;0.10;0.10;;;17.10;99.90;;;;;;5034035;28;20191;-85
2022/07/10 07:46:16;;;;;;;0.10;0.10;;;17.10;99.90;;;;;;5037331;28;20209;-83
2022/07/10 07:48:42;;;;;;;0.10;0.10;;;17.20;99.90;;;;;;5031449;28;20186;-84
2022/07/10 07:51:07;;;;;;;0.10;0.10;;;16.80;99.90;;;;;;5032578;28;20609;-84
2022/07/10 07:53:33;;;;;;;0.10;0.10;;;16.70;99.90;;;;;;5029152;28;20199;-84
2022/07/10 07:55:58;;;;;;;0.10;0.10;;;16.80;99.90;;;;;;5028854;28;20271;-83
2022/07/10 07:58:24;;;;;;;0.10;0.10;;;17.30;99.90;;;;;;5032911;28;20199;-83
2022/07/10 08:00:50;;;;;;;0.10;0.10;;;17.70;99.90;;;;;;5031802;28;20314;-84
2022/07/10 08:03:15;;;;;;;0.10;0.10;;;17.80;99.90;;;;;;5028624;28;20691;-84
2022/07/10 08:05:41;;;;;;;0.10;0.10;;;18.00;99.90;;;;;;5033180;28;20211;-83
2022/07/10 08:08:09;;;;;;;0.10;0.10;;;18.10;99.90;;;;;;5027654;28;20731;-84
2022/07/10 08:10:36;;;;;;;0.10;0.10;;;17.50;99.90;;;;;;5015044;28;20192;-84
2022/07/10 08:13:02;;;;;;;0.10;0.10;;;17.60;99.90;;;;;;5030302;28;20450;-83
2022/07/10 08:15:29;;;;;;;0.10;0.10;;;17.30;99.90;;;;;;5016445;28;20455;-85
2022/07/10 08:17:56;;;;;;;0.10;0.10;;;17.00;99.90;;;;;;5032520;28;20437;-82
2022/07/10 08:20:23;;;;;;;0.10;0.10;;;17.20;99.90;;;;;;5030582;28;20503;-83
2022/07/10 08:22:49;;;;;;;0.10;0.10;;;16.80;99.90;;;;;;5029414;28;20573;-83
2022/07/10 08:25:15;;;;;;;0.10;0.10;;;16.60;99.90;;;;;;5030189;28;20446;-82
2022/07/10 08:27:41;;;;;;;0.10;0.10;;;16.80;99.90;;;;;;5030104;28;20823;-83
2022/07/10 08:30:11;;;;;;;0.10;0.10;;;17.20;99.90;;;;;;5032081;28;20262;-85
2022/07/10 08:32:37;;;;;;;0.10;0.10;;;17.30;99.90;;;;;;5032260;28;20495;-83
2022/07/10 08:35:04;;;;;;;0.10;0.10;;;17.70;99.90;;;;;;5032365;28;20403;-83
2022/07/10 08:37:29;;;;;;;0.10;0.10;;;17.60;99.90;;;;;;5045688;28;20620;-83
2022/07/10 08:39:55;;;;;;;0.10;0.10;;;17.90;99.90;;;;;;5032019;28;20513;-83
2022/07/10 08:42:21;;;;;;;0.10;0.10;;;18.30;99.90;;;;;;5029555;28;20215;-83
2022/07/10 08:44:47;;;;;;;0.10;0.00;;;17.90;99.90;;;;;;5022621;28;20198;-82
2022/07/10 08:47:13;;;;;;;0.10;0.10;;;18.10;99.90;;;;;;5024701;28;21027;-83
2022/07/10 08:49:46;;;;;;;0.10;0.00;;;18.80;99.90;;;;;;5023441;28;20450;-83
2022/07/10 08:52:46;;;;;;;0.10;0.10;;;19.50;99.90;;;;;;5031900;28;20440;-83
2022/07/10 08:55:14;;;;;;;0.10;0.10;;;20.00;99.90;;;;;;5045426;28;20847;-83
2022/07/10 08:57:40;;;;;;;0.10;0.10;;;19.50;99.90;;;;;;5047441;28;20547;-83
2022/07/10 09:00:06;;;;;;;0.10;0.00;;;19.00;99.90;;;;;;5035046;28;20438;-84
2022/07/10 09:02:32;;;;;;;0.10;0.10;;;19.40;99.90;;;;;;5030464;28;20521;-83
2022/07/10 09:04:58;;;;;;;0.10;0.00;;;20.00;99.90;;;;;;5027482;28;20474;-82
2022/07/10 09:07:24;;;;;;;0.10;0.10;;;19.50;99.90;;;;;;5027130;28;20654;-83
2022/07/10 09:09:57;;;;;;;0.10;0.10;;;19.10;99.90;;;;;;5027925;28;20484;-83
2022/07/10 09:12:24;;;;;;;0.10;0.00;;;18.70;99.90;;;;;;5025993;28;20704;-82
2022/07/10 09:14:50;;;;;;;0.10;0.00;;;18.70;99.90;;;;;;5022503;28;20441;-83
2022/07/10 09:17:17;;;;;;;0.10;0.00;;;18.60;99.90;;;;;;5025195;28;20797;-83
2022/07/10 09:19:43;;;;;;;0.10;0.10;;;18.40;99.90;;;;;;5021882;28;20592;-84
2022/07/10 09:22:11;;;;;;;0.10;0.10;;;18.80;99.90;;;;;;5025367;28;20481;-83
2022/07/10 09:24:42;;;;;;;0.10;0.10;;;18.70;99.90;;;;;;5035458;28;20434;-83
2022/07/10 09:27:09;;;;;;;0.10;0.10;;;18.50;99.90;;;;;;5030995;28;20443;-84
2022/07/10 09:29:57;;;;;;;0.10;0.10;;;18.30;99.90;;;;;;5029836;28;20451;-83
2022/07/10 09:32:23;;;;;;;0.10;0.10;;;17.80;99.90;;;;;;5024065;28;20536;-82
2022/07/10 09:36:04;;;;;;;0.10;0.10;;;17.80;99.90;;;;;;5027197;28;20893;-81
2022/07/10 09:37:39;;;;;;;0.10;0.10;;;18.70;99.90;;;;;;5029721;28;20702;-82
2022/07/10 09:40:07;;;;;;;0.10;0.00;;;19.80;99.90;;;;;;5031357;28;20438;-82
2022/07/10 09:42:43;;;;;;;0.10;0.00;;;19.80;99.90;;;;;;5040674;28;20472;-82
2022/07/10 09:45:12;;;;;;;0.10;0.10;;;19.20;99.90;;;;;;5031877;28;20444;-83
2022/07/10 09:47:45;;;;;;;0.10;0.00;;;18.50;99.90;;;;;;5039920;28;20440;-82
2022/07/10 09:50:29;;;;;;;0.10;0.00;;;18.70;99.90;;;;;;5044440;28;20436;-82
2022/07/10 09:53:03;;;;;;;0.10;0.00;;;19.10;99.90;;;;;;5039093;28;20472;-82
2022/07/10 09:55:30;;;;;;;0.10;0.00;;;19.40;99.90;;;;;;5039384;28;20548;-83
2022/07/10 09:58:01;;;;;;;0.10;0.00;;;19.30;99.90;;;;;;5024866;28;20454;-83
2022/07/10 10:00:30;;;;;;;0.10;0.00;;;19.20;99.90;;;;;;5025971;28;20469;-82
2022/07/10 10:03:00;;;;;;;0.10;0.00;;;19.50;99.90;;;;;;5048303;28;20485;-84
2022/07/10 10:05:58;;;;;;;0.10;0.10;;;19.30;99.90;;;;;;5034876;28;20465;-85
2022/07/10 10:08:35;;;;;;;0.10;0.00;;;19.20;99.90;;;;;;5019354;28;20446;-84
2022/07/10 10:11:02;;;;;;;0.10;0.00;;;19.40;99.90;;;;;;5027956;28;20531;-82
2022/07/10 10:13:28;;;;;;;0.10;0.00;;;19.10;99.90;;;;;;5027680;28;20920;-82
2022/07/10 10:15:54;;;;;;;0.10;0.10;;;18.70;99.90;;;;;;5040148;28;20529;-82
2022/07/10 10:18:26;;;;;;;0.10;0.10;;;18.30;99.90;;;;;;5028114;28;20202;-81
2022/07/10 10:20:56;;;;;;;0.10;0.10;;;18.70;99.90;;;;;;5033507;28;20925;-81
2022/07/10 10:23:24;;;;;;;0.10;0.10;;;19.20;99.90;;;;;;5018935;28;20482;-82
2022/07/10 10:25:54;;;;;;;0.10;0.00;;;20.10;99.90;;;;;;5018010;28;22075;-83
2022/07/10 10:28:23;;;;;;;0.10;0.10;;;19.90;99.90;;;;;;5042154;28;20959;-81
2022/07/10 10:30:51;;;;;;;0.10;0.10;;;19.50;99.90;;;;;;5026483;28;20877;-80
2022/07/10 10:33:42;;;;;;;0.10;0.00;;;19.80;99.90;;;;;;5026950;28;20566;-81
2022/07/10 10:36:11;;;;;;;0.10;0.00;;;20.80;99.90;;;;;;5021825;28;20483;-81
2022/07/10 10:38:55;;;;;;;0.10;0.00;;;20.30;99.90;;;;;;5029704;28;20528;-81
2022/07/10 10:41:31;;;;;;;0.10;0.00;;;20.30;99.90;;;;;;5028404;28;20955;-81
2022/07/10 10:44:17;;;;;;;0.10;0.00;;;20.20;99.90;;;;;;5020526;28;20478;-81
2022/07/10 10:47:05;;;;;;;0.10;0.00;;;19.70;99.90;;;;;;5013564;28;20571;-80
2022/07/10 10:49:51;;;;;;;0.10;0.00;;;19.40;99.90;;;;;;5025784;28;20535;-80
2022/07/10 10:52:17;;;;;;;0.10;0.10;;;19.20;99.90;;;;;;5025113;28;20469;-79
2022/07/10 10:55:00;;;;;;;0.10;0.00;;;19.60;99.90;;;;;;5029577;28;20426;-80
2022/07/10 10:57:31;;;;;;;0.10;0.10;;;20.10;99.90;;;;;;5036783;28;20451;-80
2022/07/10 10:59:58;;;;;;;0.10;0.10;;;20.70;99.90;;;;;;5026489;28;20461;-81
2022/07/10 11:02:34;;;;;;;0.10;0.00;;;21.30;99.90;;;;;;5027914;28;20573;-81
2022/07/10 11:05:12;;;;;;;0.03;0.00;;;21.30;99.90;;;;;;5015901;28;20536;-80
2022/07/10 11:08:11;;;;;;;0.10;0.00;;;20.10;99.90;;;;;;5027624;28;20445;-80
2022/07/10 11:10:43;;;;;;;0.10;0.00;;;19.80;99.90;;;;;;5004828;28;20446;-80
2022/07/10 11:13:13;;;;;;;0.10;0.00;;;19.60;99.90;;;;;;5026727;28;20474;-80
2022/07/10 11:15:44;;;;;;;0.10;0.00;;;19.20;99.90;;;;;;5028244;28;20540;-79
2022/07/10 11:18:11;;;;;;;0.10;0.00;;;19.30;99.90;;;;;;5022277;28;20445;-80
2022/07/10 11:20:39;;;;;;;0.10;0.00;;;20.20;99.90;;;;;;5023773;28;22457;-80
2022/07/10 11:23:29;;;;;;;0.10;0.00;;;21.50;99.90;;;;;;5029837;28;20490;-79
2022/07/10 11:26:09;;;;;;;0.10;0.00;;;22.20;99.90;;;;;;5031963;28;20447;-80
2022/07/10 11:28:49;;;;;;;0.10;0.00;;;20.90;99.90;;;;;;5031853;28;20461;-80
2022/07/10 11:31:15;;;;;;;0.10;0.00;;;21.10;99.90;;;;;;5034378;28;21048;-80
2022/07/10 11:33:44;;;;;;;0.10;0.00;;;20.20;99.90;;;;;;5042328;28;20442;-80
2022/07/10 11:36:13;;;;;;;0.10;0.00;;;20.30;99.90;;;;;;5029452;28;20941;-80
2022/07/10 11:38:39;;;;;;;0.10;0.00;;;19.90;99.90;;;;;;5021801;28;20449;-81
2022/07/10 11:41:16;;;;;;;0.10;0.10;;;19.90;99.90;;;;;;5032971;28;20452;-81
2022/07/10 11:43:52;;;;;;;0.10;0.00;;;19.70;99.90;;;;;;5032356;28;20516;-80
2022/07/10 11:46:21;;;;;;;0.10;0.00;;;19.30;99.90;;;;;;5031457;28;20462;-80
2022/07/10 11:48:48;;;;;;;0.10;0.00;;;20.70;99.90;;;;;;5033189;28;20532;-81
2022/07/10 11:51:36;;;;;;;0.10;0.00;;;22.20;99.90;;;;;;5032463;28;20949;-81
2022/07/10 11:54:18;;;;;;;0.10;0.00;;;22.10;99.90;;;;;;5021600;28;20450;-80
2022/07/10 11:56:48;;;;;;;0.10;0.00;;;21.80;99.90;;;;;;5015846;28;20824;-80
2022/07/10 11:59:15;;;;;;;0.10;0.00;;;21.70;99.90;;;;;;5031738;28;21651;-80
2022/07/10 12:01:49;;;;;;;0.10;0.00;;;21.60;99.90;;;;;;5027418;28;20573;-80
2022/07/10 12:04:17;;;;;;;0.10;0.00;;;23.20;99.90;;;;;;5029515;28;20587;-80
2022/07/10 12:06:45;;;;;;;0.10;0.00;;;24.70;99.90;;;;;;5023286;28;21208;-81
2022/07/10 12:09:22;;;;;;;0.10;0.00;;;23.70;99.90;;;;;;5022821;28;20449;-80
2022/07/10 12:12:05;;;;;;;0.10;0.00;;;22.80;99.90;;;;;;5033378;28;20406;-79
2022/07/10 12:14:31;;;;;;;0.10;0.00;;;21.50;99.90;;;;;;5027836;28;20445;-79
2022/07/10 12:16:58;;;;;;;0.10;0.00;;;20.70;99.90;;;;;;5033239;28;20454;-79
2022/07/10 12:19:27;;;;;;;0.10;0.00;;;19.30;99.90;;;;;;5027252;28;20480;-78
2022/07/10 12:21:54;;;;;;;0.10;0.00;;;19.50;99.90;;;;;;5027931;28;20476;-78
2022/07/10 12:24:20;;;;;;;0.10;0.10;;;20.20;99.90;;;;;;5034453;28;20862;-79
2022/07/10 12:26:46;;;;;;;0.10;0.00;;;21.60;99.90;;;;;;5024332;28;20434;-79
2022/07/10 12:29:20;;;;;;;0.10;0.00;;;23.00;99.90;;;;;;5032811;28;20438;-79
2022/07/10 12:31:47;;;;;;;0.10;0.00;;;23.70;99.90;;;;;;5025100;28;20442;-79
2022/07/10 12:34:13;;;;;;;0.10;0.00;;;23.40;99.90;;;;;;5026266;28;20490;-79
2022/07/10 12:36:43;;;;;;;0.10;0.00;;;22.40;99.90;;;;;;5042641;28;20466;-79
2022/07/10 12:39:09;;;;;;;0.10;0.00;;;21.70;99.90;;;;;;5024075;28;20198;-79
2022/07/10 12:41:52;;;;;;;0.10;0.00;;;21.00;99.90;;;;;;5032739;28;20508;-79
2022/07/10 12:44:30;;;;;;;0.00;0.00;;;20.70;99.90;;;;;;5029466;28;20446;-79
2022/07/10 12:47:08;;;;;;;0.10;0.00;;;20.30;99.90;;;;;;5027961;28;20455;-80
2022/07/10 12:50:03;;;;;;;0.10;0.00;;;21.40;99.90;;;;;;5029611;28;20449;-79
2022/07/10 12:52:31;;;;;;;0.10;0.00;;;23.00;99.90;;;;;;5034184;28;20445;-79
2022/07/10 12:55:22;;;;;;;0.10;0.00;;;23.50;99.90;;;;;;5026566;28;20914;-79
2022/07/10 12:58:11;;;;;;;0.10;0.00;;;23.50;99.90;;;;;;5020799;28;20447;-80
2022/07/10 13:00:49;;;;;;;0.10;0.00;;;23.10;99.90;;;;;;5045951;28;20478;-84
2022/07/10 13:03:22;;;;;;;0.10;0.00;;;21.90;99.90;;;;;;5027726;28;20492;-79